Time;durP1;ratioP1;P1;durP2;ratioP2;P2;SDS_P1;SDS_P2;PMS_P1;PMS_P2;Temp;Humidity;BMP_temperature;BMP_pressure;BME280_temperature;BME280_humidity;BME280_pressure;Samples;Min_cycle;Max_cycle;Signal;HPM_P1;HPM_P2
2022/02/08 00:01:01;;;;;;;;;;;;;;;-2.46;98.63;99701.66;5115934;28;19928;-68
2022/02/08 00:03:27;;;;;;;;;;;;;;;-2.47;98.88;99696.56;5116369;28;19931;-68
2022/02/08 00:06:05;;;;;;;;;;;;;;;-2.49;98.78;99691.53;5115981;28;19923;-68
2022/02/08 00:08:32;;;;;;;;;;;;;;;-2.51;99.24;99702.59;5116106;28;19924;-69
2022/02/08 00:10:58;;;;;;;;;;;;;;;-2.53;99.21;99715.34;5115947;28;19924;-71
2022/02/08 00:13:25;;;;;;;;;;;;;;;-2.67;99.18;99707.13;5115769;28;19931;-69
2022/02/08 00:15:53;;;;;;;;;;;;;;;-2.66;98.98;99716.44;5115868;28;20287;-68
2022/02/08 00:18:19;;;;;;;;;;;;;;;-2.65;99.38;99705.38;5115812;28;19924;-72
2022/02/08 00:20:46;;;;;;;;;;;;;;;-2.64;99.16;99709.63;5115487;28;19924;-69
2022/02/08 00:23:12;;;;;;;;;;;;;;;-2.70;99.23;99712.25;5115867;28;19931;-68
2022/02/08 00:25:39;;;;;;;;;;;;;;;-2.70;99.47;99709.72;5115699;28;19923;-72
2022/02/08 00:28:06;;;;;;;;;;;;;;;-2.63;99.05;99709.56;5115596;28;19938;-69
2022/02/08 00:30:32;;;;;;;;;;;;;;;-2.78;99.04;99709.84;5116149;28;19970;-71
2022/02/08 00:33:00;;;;;;;;;;;;;;;-2.63;98.58;99708.75;5115398;28;20275;-70
2022/02/08 00:35:27;;;;;;;;;;;;;;;-2.60;98.52;99712.94;5115258;28;19924;-68
2022/02/08 00:37:53;;;;;;;;;;;;;;;-2.68;98.63;99710.53;5115339;28;20270;-68
2022/02/08 00:40:21;;;;;;;;;;;;;;;-2.64;98.72;99717.25;5115394;28;19931;-69
2022/02/08 00:42:47;;;;;;;;;;;;;;;-2.64;98.57;99707.06;5115346;28;20460;-69
2022/02/08 00:45:25;;;;;;;;;;;;;;;-2.74;99.09;99719.13;5115404;28;20370;-68
2022/02/08 00:47:56;;;;;;;;;;;;;;;-2.88;99.39;99714.28;5115173;28;19964;-68
2022/02/08 00:50:28;;;;;;;;;;;;;;;-2.90;99.79;99718.53;5114815;28;20676;-68
2022/02/08 00:52:55;;;;;;;;;;;;;;;-2.90;99.72;99715.16;5115087;28;19924;-69
2022/02/08 00:55:22;;;;;;;;;;;;;;;-2.88;99.74;99718.50;5114980;28;19924;-67
2022/02/08 00:57:48;;;;;;;;;;;;;;;-2.89;99.54;99715.13;5115099;28;20405;-70
2022/02/08 01:00:15;;;;;;;;;;;;;;;-2.88;99.42;99709.19;5115143;28;19947;-70
2022/02/08 01:02:42;;;;;;;;;;;;;;;-2.93;99.79;99707.56;5115108;28;19977;-67
2022/02/08 01:05:11;;;;;;;;;;;;;;;-2.94;99.39;99708.44;5114663;28;20390;-70
2022/02/08 01:07:41;;;;;;;;;;;;;;;-3.03;99.54;99706.91;5114699;28;19924;-69
2022/02/08 01:10:09;;;;;;;;;;;;;;;-2.91;99.35;99705.84;5114691;28;19928;-71
2022/02/08 01:12:35;;;;;;;;;;;;;;;-2.86;99.11;99709.97;5114862;28;19930;-68
2022/02/08 01:15:04;;;;;;;;;;;;;;;-2.91;99.03;99709.22;5114648;28;19928;-68
2022/02/08 01:17:30;;;;;;;;;;;;;;;-2.91;99.34;99710.94;5114697;28;19951;-69
2022/02/08 01:20:07;;;;;;;;;;;;;;;-2.94;99.50;99713.53;5114514;28;19924;-71
2022/02/08 01:22:36;;;;;;;;;;;;;;;-2.98;99.25;99707.66;5114937;28;19959;-68
2022/02/08 01:25:05;;;;;;;;;;;;;;;-2.96;99.46;99712.72;5114644;28;20022;-71
2022/02/08 01:27:37;;;;;;;;;;;;;;;-3.02;99.02;99706.00;5114489;28;19924;-69
2022/02/08 01:30:11;;;;;;;;;;;;;;;-3.03;99.09;99709.44;5114522;28;20419;-67
2022/02/08 01:32:57;;;;;;;;;;;;;;;-3.06;99.27;99709.47;5114347;28;20334;-68
2022/02/08 01:35:32;;;;;;;;;;;;;;;-3.09;99.04;99704.44;5114525;28;19973;-71
2022/02/08 01:38:04;;;;;;;;;;;;;;;-3.10;99.31;99715.47;5114081;28;20316;-67
2022/02/08 01:40:48;;;;;;;;;;;;;;;-3.12;99.20;99712.13;5114245;28;19924;-69
2022/02/08 01:46:13;;;;;;;;;;;;;;;-2.95;98.63;99706.78;5077102;28;20347;-68
2022/02/08 01:48:49;;;;;;;;;;;;;;;-2.98;98.70;99707.66;5113989;28;19927;-73
2022/02/08 01:51:16;;;;;;;;;;;;;;;-3.11;99.05;99707.03;5113972;28;19931;-71
2022/02/08 01:53:42;;;;;;;;;;;;;;;-3.05;98.99;99712.88;5114323;28;19924;-70
2022/02/08 01:56:10;;;;;;;;;;;;;;;-2.98;98.95;99714.44;5114262;28;19928;-69
2022/02/08 01:58:37;;;;;;;;;;;;;;;-3.04;98.30;99697.56;5113884;28;19931;-69
2022/02/08 02:01:04;;;;;;;;;;;;;;;-3.02;98.36;99702.63;5113891;28;19923;-70
2022/02/08 02:03:30;;;;;;;;;;;;;;;-3.08;98.43;99696.78;5113893;28;19924;-67
2022/02/08 02:05:57;;;;;;;;;;;;;;;-3.12;98.81;99702.78;5113723;28;19953;-68
2022/02/08 02:08:23;;;;;;;;;;;;;;;-3.09;98.54;99706.97;5113997;28;19931;-67
2022/02/08 02:10:50;;;;;;;;;;;;;;;-3.02;97.82;99705.19;5113622;28;19924;-68
2022/02/08 02:13:34;;;;;;;;;;;;;;;-3.10;98.02;99702.75;5113781;28;19931;-67
2022/02/08 02:16:03;;;;;;;;;;;;;;;-3.09;98.22;99706.97;5112878;28;20033;-67
2022/02/08 02:18:30;;;;;;;;;;;;;;;-3.07;98.18;99710.34;5113486;28;19931;-66
2022/02/08 02:20:56;;;;;;;;;;;;;;;-3.06;98.11;99706.91;5113547;28;20022;-67
2022/02/08 02:23:23;;;;;;;;;;;;;;;-3.03;97.88;99703.47;5113456;28;19924;-67
2022/02/08 02:25:51;;;;;;;;;;;;;;;-3.04;97.85;99702.66;5113610;28;19977;-67
2022/02/08 02:28:18;;;;;;;;;;;;;;;-3.07;97.62;99695.06;5113384;28;19924;-67
2022/02/08 02:30:44;;;;;;;;;;;;;;;-3.10;97.12;99692.59;5112841;28;19932;-68
2022/02/08 02:33:11;;;;;;;;;;;;;;;-3.15;97.33;99692.66;5113366;28;20373;-67
2022/02/08 02:35:41;;;;;;;;;;;;;;;-3.18;97.49;99699.50;5112760;28;20201;-66
2022/02/08 02:38:08;;;;;;;;;;;;;;;-3.18;97.39;99692.72;5113174;28;19932;-72
2022/02/08 02:40:36;;;;;;;;;;;;;;;-3.19;96.78;99692.72;5113054;28;20378;-71
2022/02/08 02:43:04;;;;;;;;;;;;;;;-3.24;96.52;99691.94;5113276;28;20266;-71
2022/02/08 02:45:30;;;;;;;;;;;;;;;-3.25;96.65;99693.66;5113086;28;20378;-72
2022/02/08 02:47:57;;;;;;;;;;;;;;;-3.26;96.82;99686.91;5113288;28;20380;-66
2022/02/08 02:50:24;;;;;;;;;;;;;;;-3.24;96.57;99690.25;5112880;28;19924;-73
2022/02/08 02:52:51;;;;;;;;;;;;;;;-3.28;96.91;99688.63;5113432;28;19923;-72
2022/02/08 02:55:18;;;;;;;;;;;;;;;-3.28;96.72;99694.53;5113239;28;19924;-73
2022/02/08 02:57:47;;;;;;;;;;;;;;;-3.31;96.51;99693.75;5112906;28;19923;-73
2022/02/08 03:00:30;;;;;;;;;;;;;;;-3.32;96.84;99690.34;5112952;28;19927;-72
2022/02/08 03:03:03;;;;;;;;;;;;;;;-3.38;96.75;99687.09;5113006;28;20275;-72
2022/02/08 03:05:47;;;;;;;;;;;;;;;-3.42;97.49;99691.34;5112871;28;19999;-72
2022/02/08 03:19:16;;;;;;;;;;;;;;;-3.50;97.67;99676.22;5078717;28;19923;-67
2022/02/08 03:21:42;;;;;;;;;;;;;;;-3.46;97.84;99681.28;5112846;28;19924;-69
2022/02/08 03:24:09;;;;;;;;;;;;;;;-3.48;97.76;99671.13;5112825;28;20374;-68
2022/02/08 03:26:36;;;;;;;;;;;;;;;-3.51;97.73;99666.91;5112671;28;20278;-67
2022/02/08 03:29:02;;;;;;;;;;;;;;;-3.55;97.83;99659.34;5116708;28;19935;-69
2022/02/08 03:31:29;;;;;;;;;;;;;;;-3.56;97.93;99655.13;5127429;22;19924;-63
2022/02/08 03:33:57;;;;;;;;;;;;;;;-3.43;97.16;99656.63;5117132;28;19947;-68
2022/02/08 03:36:24;;;;;;;;;;;;;;;-3.49;97.50;99649.09;5116863;28;20379;-62
2022/02/08 03:39:01;;;;;;;;;;;;;;;-3.50;97.25;99648.25;5116927;28;20335;-62
2022/02/08 03:41:35;;;;;;;;;;;;;;;-3.50;97.23;99647.41;5098112;28;19928;-62
2022/02/08 03:44:01;;;;;;;;;;;;;;;-3.58;96.84;99650.06;5096029;28;20027;-63
2022/02/08 03:46:30;;;;;;;;;;;;;;;-3.59;97.13;99645.84;5096004;28;19935;-62
2022/02/08 03:48:58;;;;;;;;;;;;;;;-3.58;97.39;99644.16;5095725;28;20313;-66
2022/02/08 03:51:26;;;;;;;;;;;;;;;-3.58;97.71;99644.97;5095989;28;19924;-62
2022/02/08 03:53:53;;;;;;;;;;;;;;;-3.56;97.15;99647.50;5096089;28;20370;-63
2022/02/08 03:56:22;;;;;;;;;;;;;;;-3.57;97.01;99640.72;5095818;28;19928;-63
2022/02/08 03:58:54;;;;;;;;;;;;;;;-3.58;96.60;99644.16;5095880;28;19925;-63
2022/02/08 04:01:51;;;;;;;;;;;;;;;-3.62;96.92;99647.59;5096023;28;19977;-69
2022/02/08 04:07:07;;;;;;;;;;;;;;;-3.70;96.91;99660.41;5094975;28;19931;-63
2022/02/08 04:09:34;;;;;;;;;;;;;;;-3.74;97.15;99661.31;5095647;28;19950;-70
2022/02/08 04:12:04;;;;;;;;;;;;;;;-3.70;97.09;99662.13;5095505;28;19924;-67
2022/02/08 04:14:40;;;;;;;;;;;;;;;-3.67;96.90;99649.34;5095409;28;20022;-63
2022/02/08 04:17:17;;;;;;;;;;;;;;;-3.64;96.52;99654.41;5095385;28;19929;-63
2022/02/08 04:20:01;;;;;;;;;;;;;;;-3.67;96.00;99656.97;5095331;28;19931;-69
2022/02/08 04:33:52;;;;;;;;;;;;;;;-3.65;96.10;99647.63;5095430;28;20397;-67
2022/02/08 04:36:31;;;;;;;;;;;;;;;-3.66;95.64;99644.25;5094821;28;20003;-69
2022/02/08 04:39:02;;;;;;;;;;;;;;;-3.66;95.99;99639.19;5094535;28;19928;-62
2022/02/08 04:41:36;;;;;;;;;;;;;;;-3.65;95.21;99640.84;5095121;28;19924;-67
2022/02/08 04:44:17;;;;;;;;;;;;;;;-3.69;95.83;99635.84;5095108;28;20025;-70
2022/02/08 04:46:49;;;;;;;;;;;;;;;-3.69;95.41;99629.06;5095068;28;19923;-62
2022/02/08 04:49:17;;;;;;;;;;;;;;;-3.71;95.81;99623.16;5094663;28;20443;-70
2022/02/08 04:51:49;;;;;;;;;;;;;;;-3.72;95.92;99616.41;5094526;28;19925;-68
2022/02/08 04:54:22;;;;;;;;;;;;;;;-3.83;96.82;99618.22;5095019;28;19924;-69
2022/02/08 04:57:07;;;;;;;;;;;;;;;-3.82;96.40;99615.69;5094739;28;19924;-62
2022/02/08 04:59:54;;;;;;;;;;;;;;;-3.65;95.32;99610.34;5094730;28;19924;-63
2022/02/08 05:35:42;;;;;;;;;;;;;;;-4.01;95.71;99610.03;5059498;28;20385;-69
2022/02/08 05:44:00;;;;;;;;;;;;;;;-4.01;95.35;99616.78;5093857;28;19947;-69
2022/02/08 05:46:50;;;;;;;;;;;;;;;-3.98;95.27;99617.59;5093586;28;20005;-68
2022/02/08 05:49:24;;;;;;;;;;;;;;;-3.94;95.51;99610.78;5093754;28;20018;-65
2022/02/08 05:54:35;;;;;;;;;;;;;;;-3.92;95.36;99614.13;5093485;28;20294;-64
2022/02/08 05:57:03;;;;;;;;;;;;;;;-3.90;95.48;99617.50;5093681;28;19931;-67
2022/02/08 05:59:30;;;;;;;;;;;;;;;-3.90;95.23;99616.63;5093721;28;20351;-66
2022/02/08 06:01:58;;;;;;;;;;;;;;;-3.92;95.52;99616.69;5093608;28;19924;-62
2022/02/08 06:04:24;;;;;;;;;;;;;;;-3.93;95.61;99620.09;5093458;28;19928;-67
2022/02/08 06:06:51;;;;;;;;;;;;;;;-3.96;95.25;99615.91;5093216;28;19931;-66
2022/02/08 06:09:19;;;;;;;;;;;;;;;-3.99;95.53;99610.00;5093457;28;19928;-63
2022/02/08 06:11:46;;;;;;;;;;;;;;;-3.97;95.43;99610.81;5091999;28;20260;-68
2022/02/08 06:14:14;;;;;;;;;;;;;;;-3.98;95.36;99611.69;5093194;28;20386;-66
2022/02/08 06:16:40;;;;;;;;;;;;;;;-4.00;95.73;99609.16;5092072;28;19931;-63
2022/02/08 06:19:07;;;;;;;;;;;;;;;-4.01;95.63;99614.25;5092925;28;19924;-63
2022/02/08 06:21:34;;;;;;;;;;;;;;;-4.09;95.89;99613.53;5093209;28;20285;-63
2022/02/08 06:24:01;;;;;;;;;;;;;;;-4.11;95.55;99610.16;5093324;28;19924;-63
2022/02/08 06:26:28;;;;;;;;;;;;;;;-4.10;96.18;99610.16;5092151;28;19931;-64
2022/02/08 06:29:04;;;;;;;;;;;;;;;-4.09;95.67;99608.44;5093123;28;20077;-64
2022/02/08 06:31:33;;;;;;;;;;;;;;;-4.08;96.03;99613.50;5087149;28;19924;-63
2022/02/08 06:33:59;;;;;;;;;;;;;;;-4.08;95.69;99608.44;5092877;28;19955;-63
2022/02/08 06:36:26;;;;;;;;;;;;;;;-4.09;95.52;99606.75;5092836;28;19928;-63
2022/02/08 06:38:52;;;;;;;;;;;;;;;-4.05;95.81;99605.00;5092621;28;19924;-63
2022/02/08 06:41:19;;;;;;;;;;;;;;;-4.04;95.65;99604.97;5092290;28;19932;-63
2022/02/08 06:43:46;;;;;;;;;;;;;;;-4.09;95.79;99605.91;5092290;28;19960;-63
2022/02/08 06:46:13;;;;;;;;;;;;;;;-4.11;95.66;99605.94;5092892;28;19924;-63
2022/02/08 06:48:41;;;;;;;;;;;;;;;-4.12;95.78;99601.69;5092708;28;19924;-63
2022/02/08 06:51:07;;;;;;;;;;;;;;;-4.14;95.83;99600.03;5092657;28;19939;-64
2022/02/08 06:53:34;;;;;;;;;;;;;;;-4.08;95.81;99600.81;5092951;28;19924;-63
2022/02/08 06:56:02;;;;;;;;;;;;;;;-4.03;95.66;99596.50;5092569;28;20283;-64
2022/02/08 06:58:35;;;;;;;;;;;;;;;-3.99;95.19;99597.28;5092687;28;19928;-63
2022/02/08 07:01:04;;;;;;;;;;;;;;;-4.05;95.71;99594.84;5075347;28;19932;-63
2022/02/08 07:03:31;;;;;;;;;;;;;;;-4.04;95.99;99593.97;5075690;28;20306;-63
2022/02/08 07:05:59;;;;;;;;;;;;;;;-4.06;95.25;99590.59;5076597;28;19936;-63
2022/02/08 07:08:25;;;;;;;;;;;;;;;-4.13;95.99;99594.94;5076475;28;19931;-64
2022/02/08 07:10:52;;;;;;;;;;;;;;;-4.11;95.81;99593.25;5076436;28;19925;-65
2022/02/08 07:13:19;;;;;;;;;;;;;;;-4.14;95.80;99590.72;5076390;28;20318;-64
2022/02/08 07:15:45;;;;;;;;;;;;;;;-4.07;95.62;99586.41;5076410;28;19924;-65
2022/02/08 07:18:12;;;;;;;;;;;;;;;-4.03;95.49;99582.97;5075532;28;19951;-64
2022/02/08 07:20:40;;;;;;;;;;;;;;;-4.05;95.71;99579.59;5075073;28;19932;-63
2022/02/08 07:23:08;;;;;;;;;;;;;;;-4.03;95.44;99583.81;5075344;28;19924;-63
2022/02/08 07:25:35;;;;;;;;;;;;;;;-4.06;95.26;99585.53;5075508;28;19932;-63
2022/02/08 07:28:02;;;;;;;;;;;;;;;-4.04;95.86;99586.34;5075154;28;19932;-63
2022/02/08 07:30:30;;;;;;;;;;;;;;;-4.07;95.63;99582.16;5074333;28;19928;-62
2022/02/08 07:32:56;;;;;;;;;;;;;;;-4.07;95.36;99579.63;5075088;28;20442;-63
2022/02/08 07:35:29;;;;;;;;;;;;;;;-4.08;94.99;99582.19;5090765;28;19924;-63
2022/02/08 07:38:03;;;;;;;;;;;;;;;-4.05;95.48;99577.91;5094462;28;19931;-63
2022/02/08 07:41:35;;;;;;;;;;;;;;;-4.02;94.94;99588.00;5094362;28;19932;-64
2022/02/08 07:43:29;;;;;;;;;;;;;;;-3.95;95.03;99579.44;5086345;28;20340;-63
2022/02/08 07:45:56;;;;;;;;;;;;;;;-3.88;95.28;99574.25;5075489;28;19932;-63
2022/02/08 07:48:23;;;;;;;;;;;;;;;-3.83;94.77;99575.88;5073828;28;19932;-64
2022/02/08 07:50:51;;;;;;;;;;;;;;;-3.86;94.69;99580.16;5074748;28;19924;-64
2022/02/08 07:53:19;;;;;;;;;;;;;;;-3.81;94.99;99578.41;5074480;28;19925;-64
2022/02/08 07:55:47;;;;;;;;;;;;;;;-3.82;94.03;99575.03;5073986;28;19956;-63
2022/02/08 07:58:14;;;;;;;;;;;;;;;-3.83;94.16;99569.94;5074208;28;20037;-63
2022/02/08 08:00:41;;;;;;;;;;;;;;;-3.85;94.24;99567.44;5077768;28;20309;-64
2022/02/08 08:03:08;;;;;;;;;;;;;;;-3.87;94.27;99571.72;5075850;28;20271;-63
2022/02/08 08:05:35;;;;;;;;;;;;;;;-3.83;94.57;99563.16;5073453;28;19943;-64
2022/02/08 08:08:02;;;;;;;;;;;;;;;-3.73;93.87;99556.22;5073794;28;19939;-64
2022/02/08 08:10:31;;;;;;;;;;;;;;;-3.70;93.75;99547.72;5074420;28;19925;-64
2022/02/08 08:13:00;;;;;;;;;;;;;;;-3.70;94.28;99550.25;5080977;28;19928;-64
2022/02/08 08:15:37;;;;;;;;;;;;;;;-3.64;92.74;99548.47;5092326;28;19924;-64
2022/02/08 08:18:16;;;;;;;;;;;;;;;-3.58;92.81;99547.53;5094833;28;19928;-64
2022/02/08 08:20:42;;;;;;;;;;;;;;;-3.72;92.95;99547.75;5094427;28;20023;-64
2022/02/08 08:23:09;;;;;;;;;;;;;;;-3.70;93.27;99553.63;5094187;28;19925;-64
2022/02/08 08:25:35;;;;;;;;;;;;;;;-3.73;93.23;99556.22;5093637;28;19924;-64
2022/02/08 08:28:04;;;;;;;;;;;;;;;-3.70;93.18;99537.53;5075159;28;19929;-64
2022/02/08 08:30:31;;;;;;;;;;;;;;;-3.70;93.45;99540.09;5075329;28;19968;-64
2022/02/08 08:32:57;;;;;;;;;;;;;;;-3.87;93.29;99536.13;5077393;28;19924;-64
2022/02/08 08:35:24;;;;;;;;;;;;;;;-3.97;93.52;99529.50;5093436;28;19991;-64
2022/02/08 08:37:53;;;;;;;;;;;;;;;-3.96;93.71;99532.03;5094133;28;19935;-64
2022/02/08 08:40:25;;;;;;;;;;;;;;;-3.97;93.49;99542.22;5094574;28;19946;-63
2022/02/08 08:43:04;;;;;;;;;;;;;;;-4.01;93.47;99541.44;5092981;28;19955;-64
2022/02/08 08:51:24;;;;;;;;;;;;;;;-4.26;95.14;99553.63;5022431;28;19933;-63
2022/02/08 08:53:52;;;;;;;;;;;;;;;-4.26;94.74;99555.34;5074432;28;19931;-63
2022/02/08 08:56:18;;;;;;;;;;;;;;;-4.27;94.48;99551.09;5081383;28;20394;-63
2022/02/08 08:58:45;;;;;;;;;;;;;;;-4.26;94.60;99542.66;5073315;28;20366;-63
2022/02/08 09:01:13;;;;;;;;;;;;;;;-4.26;94.83;99555.34;5072856;28;19935;-63
2022/02/08 09:03:39;;;;;;;;;;;;;;;-4.18;94.66;99545.91;5073625;28;20276;-63
2022/02/08 09:06:07;;;;;;;;;;;;;;;-4.19;93.92;99545.09;5073496;28;20287;-62
2022/02/08 09:08:36;;;;;;;;;;;;;;;-4.24;94.00;99543.44;5072835;28;19924;-63
2022/02/08 09:11:10;;;;;;;;;;;;;;;-4.25;94.14;99541.78;5071717;28;19929;-62
2022/02/08 09:13:41;;;;;;;;;;;;;;;-4.30;94.62;99551.16;5092612;28;20320;-62
2022/02/08 09:16:20;;;;;;;;;;;;;;;-4.34;94.51;99540.22;5093910;28;19928;-63
2022/02/08 09:29:46;;;;;;;;;;;;;;;-4.06;94.06;99511.84;5078267;28;19932;-63
2022/02/08 09:32:18;;;;;;;;;;;;;;;-3.99;93.37;99513.44;5072495;28;19924;-62
2022/02/08 09:34:47;;;;;;;;;;;;;;;-3.98;93.15;99513.44;5073485;28;20298;-63
2022/02/08 09:37:14;;;;;;;;;;;;;;;-3.99;93.15;99515.97;5071665;28;19932;-62
2022/02/08 09:39:41;;;;;;;;;;;;;;;-4.09;93.26;99510.19;5072660;28;19935;-63
2022/02/08 09:42:09;;;;;;;;;;;;;;;-4.19;93.67;99506.97;5072814;28;19924;-63
2022/02/08 09:44:36;;;;;;;;;;;;;;;-4.19;94.05;99509.53;5072818;28;20018;-63
2022/02/08 09:47:05;;;;;;;;;;;;;;;-4.24;94.14;99518.91;5071617;28;19925;-63
2022/02/08 09:49:32;;;;;;;;;;;;;;;-4.24;94.11;99523.97;5072109;28;19976;-62
2022/02/08 09:52:00;;;;;;;;;;;;;;;-4.30;93.78;99518.97;5072830;28;19925;-63
2022/02/08 09:54:27;;;;;;;;;;;;;;;-4.22;94.02;99513.78;5071571;28;20353;-63
2022/02/08 09:56:54;;;;;;;;;;;;;;;-4.24;93.48;99515.50;5071620;28;20428;-62
2022/02/08 09:59:20;;;;;;;;;;;;;;;-4.28;93.89;99509.63;5076979;28;20282;-62
2022/02/08 10:01:54;;;;;;;;;;;;;;;-4.29;94.19;99504.56;5078037;28;20409;-63
2022/02/08 10:04:20;;;;;;;;;;;;;;;-4.31;94.24;99508.84;5071264;28;19947;-63
2022/02/08 10:06:47;;;;;;;;;;;;;;;-4.34;94.55;99511.41;5071874;28;19924;-63
2022/02/08 10:09:15;;;;;;;;;;;;;;;-4.34;94.32;99509.75;5072421;28;19932;-63
2022/02/08 10:11:45;;;;;;;;;;;;;;;-4.38;94.76;99503.84;5072382;28;19925;-63
2022/02/08 10:14:23;;;;;;;;;;;;;;;-4.43;94.75;99509.84;5071594;28;19928;-63
2022/02/08 10:20:49;;;;;;;;;;;;;;;-4.54;95.34;99504.09;5072851;28;19931;-63
2022/02/08 10:22:45;;;;;;;;;;;;;;;-4.56;95.40;99500.72;5085809;28;20438;-63
2022/02/08 10:25:18;;;;;;;;;;;;;;;-4.48;95.93;99492.13;5092086;28;19974;-63
2022/02/08 10:28:01;;;;;;;;;;;;;;;-4.52;95.75;99489.66;5075118;28;19924;-63
2022/02/08 10:30:44;;;;;;;;;;;;;;;-4.40;95.49;99492.03;5071875;28;20007;-61
2022/02/08 10:38:53;;;;;;;;;;;;;;;-4.47;94.86;99481.13;5049611;28;20295;-64
2022/02/08 10:41:22;;;;;;;;;;;;;;;-4.55;94.52;99477.84;5067427;28;19925;-64
2022/02/08 10:43:56;;;;;;;;;;;;;;;-4.51;95.02;99474.41;5062952;28;20302;-64
2022/02/08 10:46:23;;;;;;;;;;;;;;;-4.52;94.69;99476.97;5089623;28;19924;-64
2022/02/08 10:49:00;;;;;;;;;;;;;;;-4.56;94.94;99476.19;5086546;28;19936;-64
2022/02/08 10:51:26;;;;;;;;;;;;;;;-4.73;94.95;99466.25;5090916;28;19947;-64
2022/02/08 10:53:58;;;;;;;;;;;;;;;-4.69;95.08;99467.06;5092031;28;19924;-64
2022/02/08 10:56:30;;;;;;;;;;;;;;;-4.68;95.09;99453.50;5092058;28;20017;-64
2022/02/08 10:59:12;;;;;;;;;;;;;;;-4.74;95.02;99451.88;5091911;28;19924;-64
2022/02/08 11:01:46;;;;;;;;;;;;;;;-4.69;95.23;99446.75;5085838;28;19928;-63
2022/02/08 11:04:19;;;;;;;;;;;;;;;-4.79;94.99;99448.56;5081044;28;19924;-62
2022/02/08 11:06:52;;;;;;;;;;;;;;;-4.79;95.10;99443.50;5071662;28;19924;-63
2022/02/08 11:09:27;;;;;;;;;;;;;;;-4.72;94.71;99429.88;5071681;28;19931;-63
2022/02/08 11:12:08;;;;;;;;;;;;;;;-4.63;94.63;99433.97;5070628;28;19932;-62
2022/02/08 11:14:58;;;;;;;;;;;;;;;-4.75;94.25;99427.38;5088697;28;19924;-63
2022/02/08 11:20:23;;;;;;;;;;;;;;;-4.98;95.23;99417.53;5083438;28;20290;-63
2022/02/08 11:22:55;;;;;;;;;;;;;;;-5.03;95.71;99419.31;5091711;28;19924;-64
2022/02/08 11:25:25;;;;;;;;;;;;;;;-4.99;95.54;99418.38;5091859;28;19924;-64
2022/02/08 11:27:57;;;;;;;;;;;;;;;-4.92;95.88;99414.91;5091274;28;19994;-62
2022/02/08 11:30:29;;;;;;;;;;;;;;;-4.86;94.73;99411.44;5090543;28;20429;-62
2022/02/08 11:33:07;;;;;;;;;;;;;;;-4.90;94.58;99410.66;5091228;28;19924;-62
2022/02/08 11:46:51;;;;;;;;;;;;;;;-4.81;93.32;99412.22;5070332;28;20393;-63
2022/02/08 11:49:42;;;;;;;;;;;;;;;-4.81;92.90;99402.06;5072516;28;19930;-63
2022/02/08 11:55:24;;;;;;;;;;;;;;;-4.89;94.20;99404.72;5019045;28;19929;-63
2022/02/08 12:00:40;;;;;;;;;;;;;;;-5.04;94.67;99410.00;5074753;28;19993;-63
2022/02/08 12:06:05;;;;;;;;;;;;;;;-5.06;94.65;99414.25;5072535;28;20379;-64
2022/02/08 12:08:32;;;;;;;;;;;;;;;-5.01;94.83;99414.19;5074444;28;20286;-63
2022/02/08 12:11:17;;;;;;;;;;;;;;;-5.01;94.02;99409.13;5073576;28;19932;-63
2022/02/08 12:27:05;;;;;;;;;;;;;;;-5.13;95.14;99400.81;5078122;28;19931;-63
2022/02/08 12:31:14;;;;;;;;;;;;;;;-5.54;95.96;99386.13;5094681;28;20007;-64
2022/02/08 12:33:56;;;;;;;;;;;;;;;-5.59;95.65;99375.19;5073351;28;20370;-64
2022/02/08 12:39:34;;;;;;;;;;;;;;;-5.55;95.86;99376.81;5074161;28;19924;-64
2022/02/08 12:48:25;;;;;;;;;;;;;;;-5.44;95.82;99374.19;5073728;28;20029;-65
2022/02/08 12:51:51;;;;;;;;;;;;;;;-5.42;95.82;99373.31;5092836;28;20278;-63
2022/02/08 12:54:20;;;;;;;;;;;;;;;-5.53;94.55;99377.63;5092865;28;20015;-64
2022/02/08 12:56:56;;;;;;;;;;;;;;;-5.63;94.91;99366.75;5094744;28;19931;-64
2022/02/08 12:59:39;;;;;;;;;;;;;;;-5.67;95.64;99367.66;5082591;28;20015;-64
2022/02/08 13:19:40;;;;;;;;;;;;;;;-5.68;95.71;99363.44;5092193;28;19928;-64
2022/02/08 14:06:19;;;;;;;;;;;;;;;-5.99;96.66;99363.78;5092524;28;20401;-64
2022/02/08 14:19:37;;;;;;;;;;;;;;;-6.27;96.17;99365.75;5081492;28;19928;-63
2022/02/08 14:22:15;;;;;;;;;;;;;;;-6.37;96.46;99359.09;5091499;28;20306;-63
2022/02/08 14:25:15;;;;;;;;;;;;;;;-6.36;96.78;99356.56;5091699;28;20386;-64
2022/02/08 14:30:32;;;;;;;;;;;;;;;-6.33;96.38;99365.81;5091071;28;20298;-64
2022/02/08 14:33:10;;;;;;;;;;;;;;;-6.48;96.15;99361.72;5092217;28;19924;-63
2022/02/08 14:36:02;;;;;;;;;;;;;;;-6.57;96.97;99360.13;5092093;28;19950;-63
2022/02/08 14:58:04;;;;;;;;;;;;;;;-6.53;96.05;99320.44;5092679;28;19931;-64
2022/02/08 15:05:24;;;;;;;;;;;;;;;-6.54;95.92;99328.06;5092447;28;19924;-64
2022/02/08 15:06:25;;;;;;;;;;;;;;;-6.53;96.74;99330.56;5090881;28;20497;-63
2022/02/08 15:08:52;;;;;;;;;;;;;;;-6.46;96.63;99322.06;5089387;28;19925;-62
2022/02/08 15:11:19;;;;;;;;;;;;;;;-6.47;96.40;99317.88;5092068;28;19970;-64
2022/02/08 15:13:48;;;;;;;;;;;;;;;-6.49;95.98;99314.50;5092706;28;20054;-62
2022/02/08 15:16:26;;;;;;;;;;;;;;;-6.47;96.16;99312.81;5092215;28;20449;-63
2022/02/08 15:18:55;;;;;;;;;;;;;;;-6.46;96.15;99308.56;5092540;28;20378;-63
2022/02/08 15:21:26;;;;;;;;;;;;;;;-6.46;96.03;99311.94;5092227;28;20421;-64
2022/02/08 15:23:52;;;;;;;;;;;;;;;-6.46;96.24;99316.16;5094677;28;19924;-62
2022/02/08 15:26:19;;;;;;;;;;;;;;;-6.48;96.41;99302.69;5096689;28;19924;-63
2022/02/08 15:28:46;;;;;;;;;;;;;;;-6.49;96.37;99304.38;5096492;28;19995;-62
2022/02/08 15:31:12;;;;;;;;;;;;;;;-6.51;96.32;99303.53;5096404;28;19924;-62
2022/02/08 15:33:39;;;;;;;;;;;;;;;-6.35;95.90;99301.72;5096378;28;19924;-60
2022/02/08 15:36:07;;;;;;;;;;;;;;;-6.37;96.00;99296.69;5094594;28;19924;-60
2022/02/08 15:38:36;;;;;;;;;;;;;;;-6.36;95.98;99293.28;5094412;28;20034;-62
2022/02/08 15:41:03;;;;;;;;;;;;;;;-6.38;96.11;99289.91;5095946;28;20006;-63
2022/02/08 15:43:30;;;;;;;;;;;;;;;-6.39;96.05;99285.72;5096003;28;19928;-60
2022/02/08 15:46:01;;;;;;;;;;;;;;;-6.35;96.02;99291.59;5096044;28;19924;-60
2022/02/08 15:48:27;;;;;;;;;;;;;;;-6.35;96.03;99284.81;5096241;28;19924;-62
2022/02/08 15:51:01;;;;;;;;;;;;;;;-6.41;95.97;99282.38;5095720;28;19924;-62
2022/02/08 15:53:36;;;;;;;;;;;;;;;-6.40;96.28;99288.25;5095891;28;20348;-62
2022/02/08 16:05:06;;;;;;;;;;;;;;;-6.28;96.58;99267.06;5095695;28;20443;-62
2022/02/08 16:07:02;;;;;;;;;;;;;;;-6.29;96.55;99263.69;5095962;28;19935;-59
2022/02/08 16:09:36;;;;;;;;;;;;;;;-6.19;95.92;99251.75;5095685;28;19989;-61
2022/02/08 16:12:27;;;;;;;;;;;;;;;-6.25;96.23;99254.38;5095583;28;19924;-62
2022/02/08 16:15:15;;;;;;;;;;;;;;;-6.23;96.42;99250.13;5095753;28;19927;-60
2022/02/08 16:17:54;;;;;;;;;;;;;;;-6.32;96.14;99245.97;5095734;28;19924;-59
2022/02/08 16:20:33;;;;;;;;;;;;;;;-6.31;96.80;99251.91;5095241;28;19924;-60
2022/02/08 16:23:23;;;;;;;;;;;;;;;-6.29;97.17;99256.09;5095386;28;20338;-63
2022/02/08 16:26:00;;;;;;;;;;;;;;;-6.25;96.32;99252.66;5095334;28;20011;-60
2022/02/08 16:28:45;;;;;;;;;;;;;;;-6.23;96.13;99253.50;5095126;28;19931;-62
2022/02/08 16:53:09;;;;;;;;;;;;;;;-5.99;96.16;99228.75;5094859;28;20427;-62
2022/02/08 16:56:00;;;;;;;;;;;;;;;-5.96;96.13;99231.22;5094934;28;19928;-62
2022/02/08 16:58:38;;;;;;;;;;;;;;;-6.01;96.95;99230.44;5094928;28;19931;-62
2022/02/08 17:01:11;;;;;;;;;;;;;;;-6.06;96.36;99228.00;5094690;28;19977;-61
2022/02/08 17:03:43;;;;;;;;;;;;;;;-6.02;96.37;99219.47;5094890;28;20313;-60
2022/02/08 17:06:10;;;;;;;;;;;;;;;-6.06;96.62;99227.13;5094476;28;19928;-61
2022/02/08 17:08:36;;;;;;;;;;;;;;;-5.99;96.48;99219.44;5094707;28;19932;-61
2022/02/08 17:11:03;;;;;;;;;;;;;;;-6.07;96.49;99226.31;5094355;28;20309;-60
2022/02/08 17:13:51;;;;;;;;;;;;;;;-5.98;96.54;99215.25;5094426;28;19924;-59
2022/02/08 17:16:27;;;;;;;;;;;;;;;-5.97;96.44;99207.59;5094289;28;19924;-60
2022/02/08 17:19:11;;;;;;;;;;;;;;;-5.97;96.62;99212.66;5094301;28;19986;-59
2022/02/08 17:46:21;;;;;;;;;;;;;;;-5.83;96.09;99209.09;5093946;28;19931;-60
2022/02/08 17:48:48;;;;;;;;;;;;;;;-5.82;96.53;99206.53;5093790;28;20435;-60
2022/02/08 17:51:14;;;;;;;;;;;;;;;-5.78;96.15;99208.19;5093747;28;19924;-60
2022/02/08 17:53:41;;;;;;;;;;;;;;;-5.81;96.46;99205.66;5093753;28;20393;-59
2022/02/08 17:56:08;;;;;;;;;;;;;;;-5.77;95.78;99206.50;5093726;28;20884;-60
2022/02/08 17:58:36;;;;;;;;;;;;;;;-5.84;96.26;99202.34;5093821;28;19924;-60
2022/02/08 18:01:03;;;;;;;;;;;;;;;-5.83;96.67;99204.88;5093679;28;20362;-60
2022/02/08 18:03:31;;;;;;;;;;;;;;;-5.83;96.90;99198.94;5093567;28;19924;-60